sensor_id;sensor_type;location;lat;lon;timestamp;temperature;humidity
6666;DHT22;3369;49.906;8.598;2022-08-24T00:01:09;20.20;66.90
6666;DHT22;3369;49.906;8.598;2022-08-24T00:03:36;20.10;66.90
6666;DHT22;3369;49.906;8.598;2022-08-24T00:06:05;20.00;67.00
6666;DHT22;3369;49.906;8.598;2022-08-24T00:08:32;20.00;67.20
6666;DHT22;3369;49.906;8.598;2022-08-24T00:10:57;20.00;67.70
6666;DHT22;3369;49.906;8.598;2022-08-24T00:13:24;19.90;67.80
6666;DHT22;3369;49.906;8.598;2022-08-24T00:15:50;19.90;68.00
6666;DHT22;3369;49.906;8.598;2022-08-24T00:18:16;19.80;68.10
6666;DHT22;3369;49.906;8.598;2022-08-24T00:20:42;19.80;68.30
6666;DHT22;3369;49.906;8.598;2022-08-24T00:23:08;19.80;68.60
6666;DHT22;3369;49.906;8.598;2022-08-24T00:25:34;19.70;68.80
6666;DHT22;3369;49.906;8.598;2022-08-24T00:28:00;19.50;68.90
6666;DHT22;3369;49.906;8.598;2022-08-24T00:30:26;19.40;69.20
6666;DHT22;3369;49.906;8.598;2022-08-24T00:32:52;19.40;69.40
6666;DHT22;3369;49.906;8.598;2022-08-24T00:35:21;19.30;69.60
6666;DHT22;3369;49.906;8.598;2022-08-24T00:37:48;19.20;69.70
6666;DHT22;3369;49.906;8.598;2022-08-24T00:40:21;19.20;69.80
6666;DHT22;3369;49.906;8.598;2022-08-24T00:42:47;19.10;70.10
6666;DHT22;3369;49.906;8.598;2022-08-24T00:45:16;19.10;70.40
6666;DHT22;3369;49.906;8.598;2022-08-24T00:47:56;19.10;70.70
6666;DHT22;3369;49.906;8.598;2022-08-24T00:53:00;19.10;70.60
6666;DHT22;3369;49.906;8.598;2022-08-24T00:55:32;19.10;70.70
6666;DHT22;3369;49.906;8.598;2022-08-24T00:58:07;19.10;70.50
6666;DHT22;3369;49.906;8.598;2022-08-24T01:00:41;19.00;70.50
6666;DHT22;3369;49.906;8.598;2022-08-24T01:03:08;19.00;70.70
6666;DHT22;3369;49.906;8.598;2022-08-24T01:05:36;19.00;70.80
6666;DHT22;3369;49.906;8.598;2022-08-24T01:08:05;19.00;70.90
6666;DHT22;3369;49.906;8.598;2022-08-24T01:10:36;19.00;71.60
6666;DHT22;3369;49.906;8.598;2022-08-24T01:13:04;19.00;70.90
6666;DHT22;3369;49.906;8.598;2022-08-24T01:15:37;19.00;70.80
6666;DHT22;3369;49.906;8.598;2022-08-24T01:18:04;19.00;70.90
6666;DHT22;3369;49.906;8.598;2022-08-24T01:20:56;19.00;71.40
6666;DHT22;3369;49.906;8.598;2022-08-24T01:23:40;19.00;71.20
6666;DHT22;3369;49.906;8.598;2022-08-24T01:26:10;19.00;71.20
6666;DHT22;3369;49.906;8.598;2022-08-24T01:28:36;19.00;71.00
6666;DHT22;3369;49.906;8.598;2022-08-24T01:31:05;19.00;71.00
6666;DHT22;3369;49.906;8.598;2022-08-24T01:33:31;19.00;71.00
6666;DHT22;3369;49.906;8.598;2022-08-24T01:57:26;19.20;68.70
6666;DHT22;3369;49.906;8.598;2022-08-24T01:59:52;19.20;69.20
6666;DHT22;3369;49.906;8.598;2022-08-24T02:02:24;19.20;69.30
6666;DHT22;3369;49.906;8.598;2022-08-24T02:04:51;19.20;69.50
6666;DHT22;3369;49.906;8.598;2022-08-24T02:07:17;19.20;69.50
6666;DHT22;3369;49.906;8.598;2022-08-24T02:09:43;19.20;69.30
6666;DHT22;3369;49.906;8.598;2022-08-24T02:12:09;19.20;69.20
6666;DHT22;3369;49.906;8.598;2022-08-24T02:14:35;19.30;69.30
6666;DHT22;3369;49.906;8.598;2022-08-24T02:17:02;19.30;69.20
6666;DHT22;3369;49.906;8.598;2022-08-24T02:19:29;19.30;69.10
6666;DHT22;3369;49.906;8.598;2022-08-24T02:21:54;19.30;69.10
6666;DHT22;3369;49.906;8.598;2022-08-24T02:24:20;19.30;69.00
6666;DHT22;3369;49.906;8.598;2022-08-24T02:26:46;19.30;68.80
6666;DHT22;3369;49.906;8.598;2022-08-24T02:29:13;19.30;68.80
6666;DHT22;3369;49.906;8.598;2022-08-24T02:31:39;19.30;68.90
6666;DHT22;3369;49.906;8.598;2022-08-24T02:34:05;19.30;68.90
6666;DHT22;3369;49.906;8.598;2022-08-24T02:36:30;19.30;68.90
6666;DHT22;3369;49.906;8.598;2022-08-24T02:38:56;19.30;69.00
6666;DHT22;3369;49.906;8.598;2022-08-24T02:41:22;19.30;69.00
6666;DHT22;3369;49.906;8.598;2022-08-24T02:43:53;19.30;69.10
6666;DHT22;3369;49.906;8.598;2022-08-24T02:46:22;19.30;69.10
6666;DHT22;3369;49.906;8.598;2022-08-24T02:48:49;19.30;69.20
6666;DHT22;3369;49.906;8.598;2022-08-24T02:51:24;19.20;69.10
6666;DHT22;3369;49.906;8.598;2022-08-24T02:53:50;19.30;69.20
6666;DHT22;3369;49.906;8.598;2022-08-24T02:56:16;19.30;69.20
6666;DHT22;3369;49.906;8.598;2022-08-24T02:58:46;19.20;69.20
6666;DHT22;3369;49.906;8.598;2022-08-24T03:01:13;19.20;69.30
6666;DHT22;3369;49.906;8.598;2022-08-24T03:03:39;19.20;69.40
6666;DHT22;3369;49.906;8.598;2022-08-24T03:06:06;19.20;69.40
6666;DHT22;3369;49.906;8.598;2022-08-24T03:08:33;19.20;69.50
6666;DHT22;3369;49.906;8.598;2022-08-24T03:10:59;19.20;69.50
6666;DHT22;3369;49.906;8.598;2022-08-24T03:13:26;19.20;69.50
6666;DHT22;3369;49.906;8.598;2022-08-24T03:15:53;19.20;69.60
6666;DHT22;3369;49.906;8.598;2022-08-24T03:18:20;19.20;69.60
6666;DHT22;3369;49.906;8.598;2022-08-24T03:20:46;19.20;69.70
6666;DHT22;3369;49.906;8.598;2022-08-24T03:23:12;19.20;69.80
6666;DHT22;3369;49.906;8.598;2022-08-24T03:25:38;19.20;69.80
6666;DHT22;3369;49.906;8.598;2022-08-24T03:28:04;19.20;69.80
6666;DHT22;3369;49.906;8.598;2022-08-24T03:30:29;19.10;69.70
6666;DHT22;3369;49.906;8.598;2022-08-24T03:32:55;19.20;69.80
6666;DHT22;3369;49.906;8.598;2022-08-24T03:35:21;19.10;69.70
6666;DHT22;3369;49.906;8.598;2022-08-24T03:37:48;19.20;69.80
6666;DHT22;3369;49.906;8.598;2022-08-24T03:40:15;19.10;69.70
6666;DHT22;3369;49.906;8.598;2022-08-24T03:42:41;19.10;69.70
6666;DHT22;3369;49.906;8.598;2022-08-24T03:45:07;19.10;69.80
6666;DHT22;3369;49.906;8.598;2022-08-24T03:47:33;19.10;69.90
6666;DHT22;3369;49.906;8.598;2022-08-24T03:49:59;19.10;70.00
6666;DHT22;3369;49.906;8.598;2022-08-24T03:52:25;19.10;70.00
6666;DHT22;3369;49.906;8.598;2022-08-24T03:54:51;19.10;70.10
6666;DHT22;3369;49.906;8.598;2022-08-24T03:57:16;19.10;70.20
6666;DHT22;3369;49.906;8.598;2022-08-24T03:59:42;19.10;70.30
6666;DHT22;3369;49.906;8.598;2022-08-24T04:02:08;19.10;70.50
6666;DHT22;3369;49.906;8.598;2022-08-24T04:04:34;19.10;70.60
6666;DHT22;3369;49.906;8.598;2022-08-24T04:06:59;19.10;70.70
6666;DHT22;3369;49.906;8.598;2022-08-24T04:09:25;19.00;71.50
6666;DHT22;3369;49.906;8.598;2022-08-24T04:11:51;19.00;70.90
6666;DHT22;3369;49.906;8.598;2022-08-24T04:14:17;19.00;71.20
6666;DHT22;3369;49.906;8.598;2022-08-24T04:16:43;18.90;71.30
6666;DHT22;3369;49.906;8.598;2022-08-24T04:19:10;18.80;71.60
6666;DHT22;3369;49.906;8.598;2022-08-24T04:21:37;18.70;72.00
6666;DHT22;3369;49.906;8.598;2022-08-24T04:24:07;18.70;72.30
6666;DHT22;3369;49.906;8.598;2022-08-24T04:26:35;18.60;72.40
6666;DHT22;3369;49.906;8.598;2022-08-24T04:29:02;18.60;72.60
6666;DHT22;3369;49.906;8.598;2022-08-24T04:31:27;18.50;73.00
6666;DHT22;3369;49.906;8.598;2022-08-24T04:33:55;18.50;73.30
6666;DHT22;3369;49.906;8.598;2022-08-24T04:36:22;18.50;73.60
6666;DHT22;3369;49.906;8.598;2022-08-24T04:38:48;18.40;73.90
6666;DHT22;3369;49.906;8.598;2022-08-24T04:41:16;18.40;74.40
6666;DHT22;3369;49.906;8.598;2022-08-24T04:43:44;18.40;74.60
6666;DHT22;3369;49.906;8.598;2022-08-24T04:46:12;18.40;74.90
6666;DHT22;3369;49.906;8.598;2022-08-24T04:48:42;18.30;75.20
6666;DHT22;3369;49.906;8.598;2022-08-24T04:51:11;18.30;75.50
6666;DHT22;3369;49.906;8.598;2022-08-24T04:53:38;18.20;75.80
6666;DHT22;3369;49.906;8.598;2022-08-24T04:56:08;18.20;76.10
6666;DHT22;3369;49.906;8.598;2022-08-24T04:58:34;18.20;76.40
6666;DHT22;3369;49.906;8.598;2022-08-24T05:00:59;18.20;76.80
6666;DHT22;3369;49.906;8.598;2022-08-24T05:03:25;18.20;77.10
6666;DHT22;3369;49.906;8.598;2022-08-24T05:05:50;18.20;77.40
6666;DHT22;3369;49.906;8.598;2022-08-24T05:08:18;18.20;77.70
6666;DHT22;3369;49.906;8.598;2022-08-24T05:10:46;18.20;78.10
6666;DHT22;3369;49.906;8.598;2022-08-24T05:13:13;18.20;78.70
6666;DHT22;3369;49.906;8.598;2022-08-24T05:15:44;18.20;78.90
6666;DHT22;3369;49.906;8.598;2022-08-24T05:18:11;18.20;79.20
6666;DHT22;3369;49.906;8.598;2022-08-24T05:20:41;18.20;79.50
6666;DHT22;3369;49.906;8.598;2022-08-24T05:23:07;18.20;79.90
6666;DHT22;3369;49.906;8.598;2022-08-24T05:25:33;18.30;80.30
6666;DHT22;3369;49.906;8.598;2022-08-24T05:27:59;18.30;80.40
6666;DHT22;3369;49.906;8.598;2022-08-24T05:30:25;18.30;80.60
6666;DHT22;3369;49.906;8.598;2022-08-24T05:32:50;18.40;81.00
6666;DHT22;3369;49.906;8.598;2022-08-24T05:35:16;18.40;81.30
6666;DHT22;3369;49.906;8.598;2022-08-24T05:37:42;18.40;81.80
6666;DHT22;3369;49.906;8.598;2022-08-24T05:40:11;18.50;82.00
6666;DHT22;3369;49.906;8.598;2022-08-24T05:42:38;18.50;82.20
6666;DHT22;3369;49.906;8.598;2022-08-24T05:45:04;18.60;82.50
6666;DHT22;3369;49.906;8.598;2022-08-24T05:47:32;18.60;82.60
6666;DHT22;3369;49.906;8.598;2022-08-24T05:49:59;18.70;83.00
6666;DHT22;3369;49.906;8.598;2022-08-24T05:52:25;18.70;83.20
6666;DHT22;3369;49.906;8.598;2022-08-24T05:54:53;18.80;83.40
6666;DHT22;3369;49.906;8.598;2022-08-24T05:57:20;18.80;83.60
6666;DHT22;3369;49.906;8.598;2022-08-24T05:59:46;18.90;83.60
6666;DHT22;3369;49.906;8.598;2022-08-24T06:02:12;18.90;83.70
6666;DHT22;3369;49.906;8.598;2022-08-24T06:04:38;19.00;84.00
6666;DHT22;3369;49.906;8.598;2022-08-24T06:07:04;19.00;84.10
6666;DHT22;3369;49.906;8.598;2022-08-24T06:09:31;19.10;84.40
6666;DHT22;3369;49.906;8.598;2022-08-24T06:11:56;19.20;84.70
6666;DHT22;3369;49.906;8.598;2022-08-24T06:14:24;19.20;84.90
6666;DHT22;3369;49.906;8.598;2022-08-24T06:16:49;19.30;85.10
6666;DHT22;3369;49.906;8.598;2022-08-24T06:19:17;19.30;85.30
6666;DHT22;3369;49.906;8.598;2022-08-24T06:21:45;19.40;85.60
6666;DHT22;3369;49.906;8.598;2022-08-24T06:24:12;19.40;85.60
6666;DHT22;3369;49.906;8.598;2022-08-24T06:26:43;19.50;85.80
6666;DHT22;3369;49.906;8.598;2022-08-24T06:29:28;19.50;85.80
6666;DHT22;3369;49.906;8.598;2022-08-24T06:31:55;19.60;86.00
6666;DHT22;3369;49.906;8.598;2022-08-24T06:34:22;19.70;86.10
6666;DHT22;3369;49.906;8.598;2022-08-24T06:36:49;19.70;86.10
6666;DHT22;3369;49.906;8.598;2022-08-24T06:39:14;19.70;86.10
6666;DHT22;3369;49.906;8.598;2022-08-24T06:41:40;19.90;86.20
6666;DHT22;3369;49.906;8.598;2022-08-24T06:44:07;19.90;86.20
6666;DHT22;3369;49.906;8.598;2022-08-24T06:46:33;20.00;86.10
6666;DHT22;3369;49.906;8.598;2022-08-24T06:49:01;20.10;86.10
6666;DHT22;3369;49.906;8.598;2022-08-24T06:51:27;20.30;86.00
6666;DHT22;3369;49.906;8.598;2022-08-24T06:53:53;20.40;85.80
6666;DHT22;3369;49.906;8.598;2022-08-24T06:56:20;20.60;85.60
6666;DHT22;3369;49.906;8.598;2022-08-24T06:58:46;20.70;85.10
6666;DHT22;3369;49.906;8.598;2022-08-24T07:01:19;20.90;84.70
6666;DHT22;3369;49.906;8.598;2022-08-24T07:03:46;21.10;84.10
6666;DHT22;3369;49.906;8.598;2022-08-24T07:06:12;21.20;83.60
6666;DHT22;3369;49.906;8.598;2022-08-24T07:08:39;21.40;82.50
6666;DHT22;3369;49.906;8.598;2022-08-24T07:11:07;21.60;82.30
6666;DHT22;3369;49.906;8.598;2022-08-24T07:13:33;21.70;82.10
6666;DHT22;3369;49.906;8.598;2022-08-24T07:16:00;21.80;81.50
6666;DHT22;3369;49.906;8.598;2022-08-24T07:18:26;22.00;81.30
6666;DHT22;3369;49.906;8.598;2022-08-24T07:20:52;22.20;81.00
6666;DHT22;3369;49.906;8.598;2022-08-24T07:23:18;22.30;80.20
6666;DHT22;3369;49.906;8.598;2022-08-24T07:25:45;22.50;79.80
6666;DHT22;3369;49.906;8.598;2022-08-24T07:28:12;22.60;79.60
6666;DHT22;3369;49.906;8.598;2022-08-24T07:30:39;22.80;78.80
6666;DHT22;3369;49.906;8.598;2022-08-24T07:33:06;23.00;78.60
6666;DHT22;3369;49.906;8.598;2022-08-24T07:35:32;23.10;78.10
6666;DHT22;3369;49.906;8.598;2022-08-24T07:37:59;23.20;78.00
6666;DHT22;3369;49.906;8.598;2022-08-24T07:40:26;23.30;77.10
6666;DHT22;3369;49.906;8.598;2022-08-24T07:42:55;23.50;77.10
6666;DHT22;3369;49.906;8.598;2022-08-24T07:45:21;23.70;76.30
6666;DHT22;3369;49.906;8.598;2022-08-24T07:47:48;23.80;76.30
6666;DHT22;3369;49.906;8.598;2022-08-24T07:50:14;23.90;76.10
6666;DHT22;3369;49.906;8.598;2022-08-24T07:52:40;24.00;74.90
6666;DHT22;3369;49.906;8.598;2022-08-24T07:55:07;24.10;73.20
6666;DHT22;3369;49.906;8.598;2022-08-24T07:57:34;24.20;72.90
6666;DHT22;3369;49.906;8.598;2022-08-24T08:00:00;24.30;72.30
6666;DHT22;3369;49.906;8.598;2022-08-24T08:02:26;24.40;72.10
6666;DHT22;3369;49.906;8.598;2022-08-24T08:04:54;24.50;72.10
6666;DHT22;3369;49.906;8.598;2022-08-24T08:07:20;24.50;71.80
6666;DHT22;3369;49.906;8.598;2022-08-24T08:09:46;24.60;71.50
6666;DHT22;3369;49.906;8.598;2022-08-24T08:12:14;24.60;71.50
6666;DHT22;3369;49.906;8.598;2022-08-24T08:14:39;24.70;71.40
6666;DHT22;3369;49.906;8.598;2022-08-24T08:17:05;24.80;71.30
6666;DHT22;3369;49.906;8.598;2022-08-24T08:19:32;24.90;71.10
6666;DHT22;3369;49.906;8.598;2022-08-24T08:21:58;25.00;71.20
6666;DHT22;3369;49.906;8.598;2022-08-24T08:24:43;25.20;70.10
6666;DHT22;3369;49.906;8.598;2022-08-24T08:27:10;25.30;70.00
6666;DHT22;3369;49.906;8.598;2022-08-24T08:29:37;25.40;69.20
6666;DHT22;3369;49.906;8.598;2022-08-24T08:32:10;25.60;69.50
6666;DHT22;3369;49.906;8.598;2022-08-24T08:34:39;25.70;69.70
6666;DHT22;3369;49.906;8.598;2022-08-24T08:37:04;25.90;69.90
6666;DHT22;3369;49.906;8.598;2022-08-24T08:39:31;26.00;69.30
6666;DHT22;3369;49.906;8.598;2022-08-24T08:42:42;26.20;68.10
6666;DHT22;3369;49.906;8.598;2022-08-24T08:45:20;26.30;68.60
6666;DHT22;3369;49.906;8.598;2022-08-24T08:48:03;26.40;68.90
6666;DHT22;3369;49.906;8.598;2022-08-24T08:59:10;26.70;67.70
6666;DHT22;3369;49.906;8.598;2022-08-24T09:21:54;27.50;65.00
6666;DHT22;3369;49.906;8.598;2022-08-24T09:27:16;27.80;64.70
6666;DHT22;3369;49.906;8.598;2022-08-24T09:38:23;28.20;62.40
6666;DHT22;3369;49.906;8.598;2022-08-24T10:00:33;29.70;59.90
6666;DHT22;3369;49.906;8.598;2022-08-24T10:09:18;30.00;57.40
6666;DHT22;3369;49.906;8.598;2022-08-24T10:12:00;30.00;57.50
6666;DHT22;3369;49.906;8.598;2022-08-24T10:14:36;30.10;57.50
6666;DHT22;3369;49.906;8.598;2022-08-24T10:19:56;30.30;57.30
6666;DHT22;3369;49.906;8.598;2022-08-24T10:25:15;30.40;56.20
6666;DHT22;3369;49.906;8.598;2022-08-24T10:27:58;30.50;56.20
6666;DHT22;3369;49.906;8.598;2022-08-24T10:30:45;30.60;56.60
6666;DHT22;3369;49.906;8.598;2022-08-24T10:33:29;30.60;56.10
6666;DHT22;3369;49.906;8.598;2022-08-24T10:48:20;30.70;52.50
6666;DHT22;3369;49.906;8.598;2022-08-24T10:53:35;30.80;53.00
6666;DHT22;3369;49.906;8.598;2022-08-24T10:58:55;30.80;51.70
6666;DHT22;3369;49.906;8.598;2022-08-24T11:01:24;30.90;51.40
6666;DHT22;3369;49.906;8.598;2022-08-24T11:04:12;30.90;50.80
6666;DHT22;3369;49.906;8.598;2022-08-24T11:06:41;30.90;51.10
6666;DHT22;3369;49.906;8.598;2022-08-24T11:09:13;31.00;50.80
6666;DHT22;3369;49.906;8.598;2022-08-24T11:11:43;31.00;50.00
6666;DHT22;3369;49.906;8.598;2022-08-24T11:16:43;31.10;50.20
6666;DHT22;3369;49.906;8.598;2022-08-24T11:19:28;31.10;49.90
6666;DHT22;3369;49.906;8.598;2022-08-24T11:21:56;31.20;49.60
6666;DHT22;3369;49.906;8.598;2022-08-24T11:24:24;31.10;49.10
6666;DHT22;3369;49.906;8.598;2022-08-24T11:29:19;31.10;50.60
6666;DHT22;3369;49.906;8.598;2022-08-24T11:31:48;31.20;51.00
6666;DHT22;3369;49.906;8.598;2022-08-24T11:34:34;31.20;51.40
6666;DHT22;3369;49.906;8.598;2022-08-24T11:37:00;31.30;49.70
6666;DHT22;3369;49.906;8.598;2022-08-24T11:39:32;31.30;50.10
6666;DHT22;3369;49.906;8.598;2022-08-24T11:42:06;31.40;50.30
6666;DHT22;3369;49.906;8.598;2022-08-24T11:50:03;31.50;51.10
6666;DHT22;3369;49.906;8.598;2022-08-24T12:01:31;31.50;48.10
6666;DHT22;3369;49.906;8.598;2022-08-24T12:06:48;31.40;49.10
6666;DHT22;3369;49.906;8.598;2022-08-24T12:17:38;31.60;50.00
6666;DHT22;3369;49.906;8.598;2022-08-24T12:22:42;31.80;49.10
6666;DHT22;3369;49.906;8.598;2022-08-24T12:25:09;31.90;49.00
6666;DHT22;3369;49.906;8.598;2022-08-24T12:27:56;32.00;48.50
6666;DHT22;3369;49.906;8.598;2022-08-24T12:30:23;32.00;48.20
6666;DHT22;3369;49.906;8.598;2022-08-24T12:32:57;32.10;47.90
6666;DHT22;3369;49.906;8.598;2022-08-24T12:35:48;32.10;48.10
6666;DHT22;3369;49.906;8.598;2022-08-24T12:38:22;32.10;47.60
6666;DHT22;3369;49.906;8.598;2022-08-24T12:40:57;32.10;48.00
6666;DHT22;3369;49.906;8.598;2022-08-24T12:43:38;32.00;47.80
6666;DHT22;3369;49.906;8.598;2022-08-24T12:46:05;32.10;47.70
6666;DHT22;3369;49.906;8.598;2022-08-24T12:48:41;32.20;47.80
6666;DHT22;3369;49.906;8.598;2022-08-24T12:54:17;32.40;47.20
6666;DHT22;3369;49.906;8.598;2022-08-24T12:59:21;32.40;47.40
6666;DHT22;3369;49.906;8.598;2022-08-24T13:02:35;32.40;47.10
6666;DHT22;3369;49.906;8.598;2022-08-24T13:04:58;32.40;46.80
6666;DHT22;3369;49.906;8.598;2022-08-24T13:33:57;32.50;47.10
6666;DHT22;3369;49.906;8.598;2022-08-24T13:42:25;32.50;47.10
6666;DHT22;3369;49.906;8.598;2022-08-24T13:47:32;32.60;47.30
6666;DHT22;3369;49.906;8.598;2022-08-24T14:19:23;32.50;45.90
6666;DHT22;3369;49.906;8.598;2022-08-24T14:24:59;32.40;46.00
6666;DHT22;3369;49.906;8.598;2022-08-24T14:27:35;32.30;45.80
6666;DHT22;3369;49.906;8.598;2022-08-24T14:46:34;32.00;45.80
6666;DHT22;3369;49.906;8.598;2022-08-24T14:51:58;32.00;46.20
6666;DHT22;3369;49.906;8.598;2022-08-24T15:00:13;31.90;46.20
6666;DHT22;3369;49.906;8.598;2022-08-24T15:05:19;32.00;45.90
6666;DHT22;3369;49.906;8.598;2022-08-24T15:13:12;31.90;45.20
6666;DHT22;3369;49.906;8.598;2022-08-24T15:16:00;31.80;45.30
6666;DHT22;3369;49.906;8.598;2022-08-24T15:18:41;31.70;45.50
6666;DHT22;3369;49.906;8.598;2022-08-24T15:24:48;31.60;45.90
6666;DHT22;3369;49.906;8.598;2022-08-24T15:30:16;31.70;45.70
6666;DHT22;3369;49.906;8.598;2022-08-24T15:32:46;31.70;45.50
6666;DHT22;3369;49.906;8.598;2022-08-24T15:35:36;31.70;45.60
6666;DHT22;3369;49.906;8.598;2022-08-24T15:40:43;31.60;45.50
6666;DHT22;3369;49.906;8.598;2022-08-24T15:43:10;31.60;45.40
6666;DHT22;3369;49.906;8.598;2022-08-24T15:45:46;31.60;45.40
6666;DHT22;3369;49.906;8.598;2022-08-24T15:48:16;31.50;45.30
6666;DHT22;3369;49.906;8.598;2022-08-24T15:50:46;31.50;45.30
6666;DHT22;3369;49.906;8.598;2022-08-24T15:53:35;31.50;45.80
6666;DHT22;3369;49.906;8.598;2022-08-24T15:58:46;31.40;44.00
6666;DHT22;3369;49.906;8.598;2022-08-24T16:04:12;31.30;44.10
6666;DHT22;3369;49.906;8.598;2022-08-24T16:06:41;31.20;44.50
6666;DHT22;3369;49.906;8.598;2022-08-24T16:09:14;31.20;45.10
6666;DHT22;3369;49.906;8.598;2022-08-24T16:14:37;31.20;45.00
6666;DHT22;3369;49.906;8.598;2022-08-24T16:17:32;31.20;44.90
6666;DHT22;3369;49.906;8.598;2022-08-24T16:20:03;31.10;44.50
6666;DHT22;3369;49.906;8.598;2022-08-24T16:35:58;31.00;44.40
6666;DHT22;3369;49.906;8.598;2022-08-24T16:38:27;30.90;44.50
6666;DHT22;3369;49.906;8.598;2022-08-24T16:40:57;30.90;44.40
6666;DHT22;3369;49.906;8.598;2022-08-24T16:43:23;30.90;44.50
6666;DHT22;3369;49.906;8.598;2022-08-24T16:45:49;30.80;44.60
6666;DHT22;3369;49.906;8.598;2022-08-24T16:48:15;30.80;44.80
6666;DHT22;3369;49.906;8.598;2022-08-24T16:50:40;30.80;44.40
6666;DHT22;3369;49.906;8.598;2022-08-24T16:53:06;30.70;44.40
6666;DHT22;3369;49.906;8.598;2022-08-24T16:55:31;30.70;44.70
6666;DHT22;3369;49.906;8.598;2022-08-24T16:57:57;30.60;44.90
6666;DHT22;3369;49.906;8.598;2022-08-24T17:00:25;30.60;45.20
6666;DHT22;3369;49.906;8.598;2022-08-24T17:02:51;30.50;45.30
6666;DHT22;3369;49.906;8.598;2022-08-24T17:05:18;30.50;45.60
6666;DHT22;3369;49.906;8.598;2022-08-24T17:07:43;30.40;45.50
6666;DHT22;3369;49.906;8.598;2022-08-24T17:10:12;30.40;45.50
6666;DHT22;3369;49.906;8.598;2022-08-24T17:12:40;30.40;45.40
6666;DHT22;3369;49.906;8.598;2022-08-24T17:15:07;30.30;45.60
6666;DHT22;3369;49.906;8.598;2022-08-24T17:17:34;30.20;45.70
6666;DHT22;3369;49.906;8.598;2022-08-24T17:20:01;30.20;45.80
6666;DHT22;3369;49.906;8.598;2022-08-24T17:22:27;30.20;46.10
6666;DHT22;3369;49.906;8.598;2022-08-24T17:24:52;30.10;46.10
6666;DHT22;3369;49.906;8.598;2022-08-24T17:27:21;30.10;46.20
6666;DHT22;3369;49.906;8.598;2022-08-24T17:29:48;30.00;46.30
6666;DHT22;3369;49.906;8.598;2022-08-24T17:32:14;30.00;46.30
6666;DHT22;3369;49.906;8.598;2022-08-24T17:34:41;29.90;46.30
6666;DHT22;3369;49.906;8.598;2022-08-24T17:37:07;29.90;46.50
6666;DHT22;3369;49.906;8.598;2022-08-24T17:39:32;29.90;46.70
6666;DHT22;3369;49.906;8.598;2022-08-24T17:41:58;29.80;46.60
6666;DHT22;3369;49.906;8.598;2022-08-24T17:44:28;29.80;46.70
6666;DHT22;3369;49.906;8.598;2022-08-24T17:46:56;29.80;46.80
6666;DHT22;3369;49.906;8.598;2022-08-24T17:49:24;29.70;46.80
6666;DHT22;3369;49.906;8.598;2022-08-24T17:51:51;29.70;46.90
6666;DHT22;3369;49.906;8.598;2022-08-24T17:54:17;29.60;46.90
6666;DHT22;3369;49.906;8.598;2022-08-24T17:56:44;29.60;47.00
6666;DHT22;3369;49.906;8.598;2022-08-24T17:59:14;29.60;46.90
6666;DHT22;3369;49.906;8.598;2022-08-24T18:01:58;29.50;46.90
6666;DHT22;3369;49.906;8.598;2022-08-24T18:04:26;29.50;47.00
6666;DHT22;3369;49.906;8.598;2022-08-24T18:06:55;29.40;47.00
6666;DHT22;3369;49.906;8.598;2022-08-24T18:09:30;29.30;47.10
6666;DHT22;3369;49.906;8.598;2022-08-24T18:11:57;29.30;47.80
6666;DHT22;3369;49.906;8.598;2022-08-24T18:14:28;29.20;47.30
6666;DHT22;3369;49.906;8.598;2022-08-24T18:16:56;29.20;47.40
6666;DHT22;3369;49.906;8.598;2022-08-24T18:19:22;29.10;47.40
6666;DHT22;3369;49.906;8.598;2022-08-24T18:21:49;29.10;47.60
6666;DHT22;3369;49.906;8.598;2022-08-24T18:24:15;28.90;47.70
6666;DHT22;3369;49.906;8.598;2022-08-24T18:26:41;28.90;47.60
6666;DHT22;3369;49.906;8.598;2022-08-24T18:29:14;28.80;47.40
6666;DHT22;3369;49.906;8.598;2022-08-24T18:31:40;28.80;47.40
6666;DHT22;3369;49.906;8.598;2022-08-24T18:34:07;28.80;47.40
6666;DHT22;3369;49.906;8.598;2022-08-24T18:36:33;28.80;47.50
6666;DHT22;3369;49.906;8.598;2022-08-24T18:38:58;28.70;47.50
6666;DHT22;3369;49.906;8.598;2022-08-24T18:41:28;28.70;47.80
6666;DHT22;3369;49.906;8.598;2022-08-24T18:43:55;28.60;47.90
6666;DHT22;3369;49.906;8.598;2022-08-24T18:46:21;28.50;48.10
6666;DHT22;3369;49.906;8.598;2022-08-24T18:48:47;28.40;48.20
6666;DHT22;3369;49.906;8.598;2022-08-24T18:51:15;28.40;48.30
6666;DHT22;3369;49.906;8.598;2022-08-24T18:53:43;28.30;48.40
6666;DHT22;3369;49.906;8.598;2022-08-24T18:56:08;28.20;48.50
6666;DHT22;3369;49.906;8.598;2022-08-24T18:58:35;28.10;48.60
6666;DHT22;3369;49.906;8.598;2022-08-24T19:01:02;28.10;48.80
6666;DHT22;3369;49.906;8.598;2022-08-24T19:03:28;28.00;48.90
6666;DHT22;3369;49.906;8.598;2022-08-24T19:05:55;27.90;49.10
6666;DHT22;3369;49.906;8.598;2022-08-24T19:08:21;27.80;49.10
6666;DHT22;3369;49.906;8.598;2022-08-24T19:10:48;27.70;49.20
6666;DHT22;3369;49.906;8.598;2022-08-24T19:13:15;27.70;49.30
6666;DHT22;3369;49.906;8.598;2022-08-24T19:15:46;27.60;49.50
6666;DHT22;3369;49.906;8.598;2022-08-24T19:18:16;27.50;49.60
6666;DHT22;3369;49.906;8.598;2022-08-24T19:20:46;27.50;49.80
6666;DHT22;3369;49.906;8.598;2022-08-24T19:23:26;27.40;50.00
6666;DHT22;3369;49.906;8.598;2022-08-24T19:25:53;27.30;50.20
6666;DHT22;3369;49.906;8.598;2022-08-24T19:28:20;27.20;50.40
6666;DHT22;3369;49.906;8.598;2022-08-24T19:30:46;27.10;50.70
6666;DHT22;3369;49.906;8.598;2022-08-24T19:33:21;27.00;51.10
6666;DHT22;3369;49.906;8.598;2022-08-24T19:35:49;26.80;51.30
6666;DHT22;3369;49.906;8.598;2022-08-24T19:38:15;26.70;51.50
6666;DHT22;3369;49.906;8.598;2022-08-24T19:40:42;26.60;51.70
6666;DHT22;3369;49.906;8.598;2022-08-24T19:43:07;26.50;51.90
6666;DHT22;3369;49.906;8.598;2022-08-24T19:45:33;26.40;52.10
6666;DHT22;3369;49.906;8.598;2022-08-24T19:48:18;26.30;52.20
6666;DHT22;3369;49.906;8.598;2022-08-24T19:50:43;26.20;52.40
6666;DHT22;3369;49.906;8.598;2022-08-24T19:53:09;26.10;52.50
6666;DHT22;3369;49.906;8.598;2022-08-24T19:55:35;26.10;52.80
6666;DHT22;3369;49.906;8.598;2022-08-24T20:00:42;25.90;52.90
6666;DHT22;3369;49.906;8.598;2022-08-24T20:03:11;25.90;53.10
6666;DHT22;3369;49.906;8.598;2022-08-24T20:05:37;25.80;53.20
6666;DHT22;3369;49.906;8.598;2022-08-24T20:08:03;25.70;53.30
6666;DHT22;3369;49.906;8.598;2022-08-24T20:10:31;25.60;53.50
6666;DHT22;3369;49.906;8.598;2022-08-24T20:12:57;25.50;53.80
6666;DHT22;3369;49.906;8.598;2022-08-24T20:15:24;25.30;54.00
6666;DHT22;3369;49.906;8.598;2022-08-24T20:17:50;25.20;54.30
6666;DHT22;3369;49.906;8.598;2022-08-24T20:20:17;25.10;54.50
6666;DHT22;3369;49.906;8.598;2022-08-24T20:22:44;24.90;54.70
6666;DHT22;3369;49.906;8.598;2022-08-24T20:25:10;24.80;55.00
6666;DHT22;3369;49.906;8.598;2022-08-24T20:27:36;24.60;55.10
6666;DHT22;3369;49.906;8.598;2022-08-24T20:30:02;24.50;55.30
6666;DHT22;3369;49.906;8.598;2022-08-24T20:32:28;24.50;55.50
6666;DHT22;3369;49.906;8.598;2022-08-24T20:34:54;24.40;55.60
6666;DHT22;3369;49.906;8.598;2022-08-24T20:37:25;24.30;55.80
6666;DHT22;3369;49.906;8.598;2022-08-24T20:39:54;24.20;56.00
6666;DHT22;3369;49.906;8.598;2022-08-24T20:42:22;24.20;56.20
6666;DHT22;3369;49.906;8.598;2022-08-24T20:44:48;24.10;56.30
6666;DHT22;3369;49.906;8.598;2022-08-24T20:47:15;24.00;56.40
6666;DHT22;3369;49.906;8.598;2022-08-24T20:49:41;24.00;56.60
6666;DHT22;3369;49.906;8.598;2022-08-24T20:52:07;24.00;56.70
6666;DHT22;3369;49.906;8.598;2022-08-24T20:54:34;24.00;56.80
6666;DHT22;3369;49.906;8.598;2022-08-24T20:57:00;24.00;57.10
6666;DHT22;3369;49.906;8.598;2022-08-24T20:59:26;24.00;57.60